createdAt,value
2023-03-04T00:02:04.446Z,2.57
2023-03-04T00:05:08.577Z,2.10
2023-03-04T00:08:11.529Z,2.90
2023-03-04T00:11:15.835Z,2.53
2023-03-04T00:14:18.806Z,1.97
2023-03-04T00:17:22.456Z,2.27
2023-03-04T00:20:25.397Z,1.70
2023-03-04T00:23:28.345Z,1.80
2023-03-04T00:26:32.640Z,1.77
2023-03-04T00:29:35.599Z,1.77
2023-03-04T00:32:38.602Z,1.50
2023-03-04T00:35:41.720Z,1.70
2023-03-04T00:38:44.725Z,2.07
2023-03-04T00:41:49.030Z,1.40
2023-03-04T00:44:52.388Z,1.47
2023-03-04T00:47:55.343Z,1.40
2023-03-04T00:50:58.250Z,1.47
2023-03-04T00:54:01.235Z,1.90
2023-03-04T00:57:05.536Z,1.97
2023-03-04T01:00:09.803Z,1.83
2023-03-04T01:03:12.759Z,1.30
2023-03-04T01:06:15.729Z,1.40
2023-03-04T01:09:18.670Z,1.20
2023-03-04T01:12:22.962Z,1.10
2023-03-04T01:15:26.002Z,1.33
2023-03-04T01:18:29.024Z,1.03
2023-03-04T01:21:32.065Z,1.10
2023-03-04T01:24:35.046Z,1.77
2023-03-04T01:27:39.317Z,1.40
2023-03-04T01:30:42.355Z,1.27
2023-03-04T01:33:45.332Z,0.80
2023-03-04T01:36:48.294Z,1.33
2023-03-04T01:39:51.266Z,1.40
2023-03-04T01:42:55.704Z,0.93
2023-03-04T01:45:59.748Z,1.20
2023-03-04T01:49:02.892Z,1.13
2023-03-04T01:52:07.085Z,1.10
2023-03-04T01:55:15.948Z,1.00
2023-03-04T01:58:20.360Z,0.93
2023-03-04T02:01:23.334Z,1.00
2023-03-04T02:04:29.291Z,1.27
2023-03-04T02:07:32.270Z,0.90
2023-03-04T02:10:35.811Z,1.23
2023-03-04T02:13:40.148Z,1.20
2023-03-04T02:16:43.517Z,1.23
2023-03-04T02:19:54.749Z,1.17
2023-03-04T02:23:06.074Z,1.13
2023-03-04T02:26:16.647Z,0.70
2023-03-04T02:29:20.263Z,1.00
2023-03-04T02:32:23.530Z,0.73
2023-03-04T02:35:26.602Z,0.90
2023-03-04T02:38:29.613Z,1.33
2023-03-04T02:41:34.770Z,1.10
2023-03-04T02:44:39.392Z,1.50
2023-03-04T02:47:42.350Z,0.80
2023-03-04T02:50:47.848Z,1.33
2023-03-04T02:53:50.769Z,1.30
2023-03-04T02:56:58.209Z,1.00
2023-03-04T03:00:01.212Z,1.27
2023-03-04T03:03:04.382Z,1.33
2023-03-04T03:06:07.942Z,1.47
2023-03-04T03:09:10.909Z,1.63
2023-03-04T03:12:15.334Z,1.53
2023-03-04T03:15:18.804Z,2.47
2023-03-04T03:18:21.826Z,1.50
2023-03-04T03:21:25.091Z,1.83
2023-03-04T03:24:28.087Z,1.30
2023-03-04T03:27:32.561Z,1.37
2023-03-04T03:30:35.482Z,1.23
2023-03-04T03:33:38.582Z,0.80
2023-03-04T03:36:41.616Z,1.50
2023-03-04T03:39:44.764Z,1.00
2023-03-04T03:42:49.032Z,1.13
2023-03-04T03:45:52.843Z,1.03
2023-03-04T03:48:56.045Z,1.40
2023-03-04T03:51:58.991Z,1.77
2023-03-04T03:55:02.522Z,1.57
2023-03-04T03:58:07.112Z,1.70
2023-03-04T04:01:11.346Z,1.30
2023-03-04T04:04:15.024Z,1.77
2023-03-04T04:07:18.382Z,1.30
2023-03-04T04:10:21.547Z,1.33
2023-03-04T04:13:26.023Z,1.40
2023-03-04T04:16:29.059Z,1.43
2023-03-04T04:19:32.027Z,1.33
2023-03-04T04:22:35.357Z,1.47
2023-03-04T04:25:38.320Z,1.80
2023-03-04T04:28:42.599Z,1.80
2023-03-04T04:31:46.200Z,1.50
2023-03-04T04:34:49.412Z,1.47
2023-03-04T04:37:52.351Z,1.50
2023-03-04T04:40:57.339Z,1.67
2023-03-04T04:44:01.609Z,1.63
2023-03-04T04:47:04.549Z,1.93
2023-03-04T04:50:08.305Z,1.70
2023-03-04T04:53:13.317Z,1.73
2023-03-04T04:56:18.096Z,1.90
2023-03-04T04:59:22.679Z,1.63
2023-03-04T05:02:25.710Z,1.77
2023-03-04T05:05:28.703Z,1.80
2023-03-04T05:08:31.755Z,2.07
2023-03-04T05:11:34.930Z,1.90
2023-03-04T05:14:39.272Z,1.20
2023-03-04T05:17:42.204Z,2.13
2023-03-04T05:20:45.140Z,1.67
2023-03-04T05:23:48.126Z,1.37
2023-03-04T05:26:51.062Z,1.67
2023-03-04T05:29:55.631Z,1.60
2023-03-04T05:32:58.536Z,2.00
2023-03-04T05:36:01.634Z,1.60
2023-03-04T05:39:04.788Z,2.33
2023-03-04T05:42:07.816Z,2.63
2023-03-04T05:45:12.853Z,2.43
2023-03-04T05:48:15.769Z,1.90
2023-03-04T05:51:18.745Z,1.87
2023-03-04T05:54:21.795Z,2.03
2023-03-04T05:57:24.743Z,2.50
2023-03-04T06:00:29.307Z,2.50
2023-03-04T06:03:32.486Z,1.90
2023-03-04T06:06:35.436Z,2.17
2023-03-04T06:09:38.396Z,2.60
2023-03-04T06:12:41.713Z,2.63
2023-03-04T06:15:46.153Z,3.20
2023-03-04T06:18:49.175Z,3.00
2023-03-04T06:21:52.126Z,2.37
2023-03-04T06:24:55.216Z,2.53
2023-03-04T06:27:58.222Z,1.97
2023-03-04T06:31:02.540Z,3.10
2023-03-04T06:34:05.595Z,2.60
2023-03-04T06:37:08.641Z,2.10
2023-03-04T06:40:13.138Z,2.10
2023-03-04T06:43:16.298Z,2.23
2023-03-04T06:46:20.729Z,2.40
2023-03-04T06:49:23.723Z,1.97
2023-03-04T06:52:26.715Z,2.30
2023-03-04T06:55:29.659Z,1.73
2023-03-04T06:58:32.612Z,2.10
2023-03-04T07:01:38.062Z,2.30
2023-03-04T07:04:41.566Z,1.57
2023-03-04T07:07:44.610Z,1.40
2023-03-04T07:10:47.608Z,1.47
2023-03-04T07:13:51.091Z,2.20
2023-03-04T07:16:55.524Z,2.00
2023-03-04T07:19:58.501Z,1.43
2023-03-04T07:23:01.488Z,1.80
2023-03-04T07:26:04.973Z,1.87
2023-03-04T07:29:07.950Z,1.60
2023-03-04T07:32:12.683Z,1.83
2023-03-04T07:35:15.823Z,1.10
2023-03-04T07:38:18.760Z,1.93
2023-03-04T07:41:23.192Z,2.23
2023-03-04T07:44:26.174Z,2.00
2023-03-04T07:47:30.693Z,1.67
2023-03-04T07:50:33.712Z,2.13
2023-03-04T07:53:38.282Z,2.70
2023-03-04T07:56:41.407Z,2.50
2023-03-04T07:59:44.357Z,1.70
2023-03-04T08:02:48.665Z,1.80
2023-03-04T08:05:51.655Z,2.53
2023-03-04T08:08:58.626Z,2.77
2023-03-04T08:12:01.640Z,2.87
2023-03-04T08:15:05.009Z,2.60
2023-03-04T08:18:09.381Z,2.50
2023-03-04T08:21:13.714Z,2.50
2023-03-04T08:24:16.682Z,1.97
2023-03-04T08:27:19.700Z,2.47
2023-03-04T08:30:22.899Z,2.83
2023-03-04T08:33:27.338Z,3.33
2023-03-04T08:36:30.407Z,2.00
2023-03-04T08:39:36.048Z,2.10
2023-03-04T08:42:39.154Z,2.77
2023-03-04T08:45:42.166Z,2.63
2023-03-04T08:48:46.662Z,2.10
2023-03-04T08:51:49.746Z,3.33
2023-03-04T08:54:52.700Z,3.13
2023-03-04T08:57:55.712Z,3.43
2023-03-04T09:01:01.749Z,2.47
2023-03-04T09:04:06.533Z,2.43
2023-03-04T09:07:09.889Z,2.67
2023-03-04T09:10:13.335Z,3.43
2023-03-04T09:13:16.642Z,2.50
2023-03-04T09:16:19.876Z,2.97
2023-03-04T09:19:24.189Z,2.87
2023-03-04T09:22:27.197Z,2.63
2023-03-04T09:25:30.274Z,2.47
2023-03-04T09:28:33.463Z,2.70
2023-03-04T09:31:36.619Z,2.50
2023-03-04T09:34:41.280Z,3.00
2023-03-04T09:37:45.523Z,2.70
2023-03-04T09:40:50.486Z,2.73
2023-03-04T09:43:54.960Z,2.77
2023-03-04T09:47:00.294Z,2.47
2023-03-04T09:50:09.388Z,2.87
2023-03-04T09:53:21.875Z,2.83
2023-03-04T09:56:26.375Z,2.83
2023-03-04T09:59:36.374Z,2.07
2023-03-04T10:02:47.116Z,2.93
2023-03-04T10:05:56.879Z,2.33
2023-03-04T10:09:03.170Z,2.10
2023-03-04T10:12:08.909Z,2.70
2023-03-04T10:15:25.292Z,2.77
2023-03-04T10:18:34.138Z,2.07
2023-03-04T10:21:42.714Z,2.90
2023-03-04T10:24:47.608Z,2.40
2023-03-04T10:27:52.936Z,3.33
2023-03-04T10:31:02.795Z,2.77
2023-03-04T10:34:07.063Z,2.97
2023-03-04T10:37:11.863Z,2.60
2023-03-04T10:40:23.588Z,2.90
2023-03-04T10:43:26.965Z,2.37
2023-03-04T10:46:30.350Z,2.77
2023-03-04T10:49:33.384Z,3.13
2023-03-04T10:52:42.183Z,2.20
2023-03-04T10:55:46.261Z,2.87
2023-03-04T10:58:49.301Z,2.40
2023-03-04T11:01:54.676Z,2.30
2023-03-04T11:05:07.087Z,2.70
2023-03-04T11:08:19.133Z,2.50
2023-03-04T11:11:34.668Z,2.23
2023-03-04T11:14:41.343Z,2.83
2023-03-04T11:17:48.110Z,2.27
2023-03-04T11:20:52.098Z,2.47
2023-03-04T11:24:01.205Z,2.17
2023-03-04T11:27:07.354Z,2.20
2023-03-04T11:30:39.132Z,3.10
2023-03-04T11:33:46.393Z,3.23
2023-03-04T11:36:57.214Z,2.53
2023-03-04T11:40:06.195Z,2.37
2023-03-04T11:43:17.439Z,3.10
2023-03-04T11:46:46.955Z,2.70
2023-03-04T11:50:15.487Z,3.10
2023-03-04T11:53:30.326Z,2.13
2023-03-04T11:56:38.877Z,2.30
2023-03-04T12:00:03.042Z,2.53
2023-03-04T12:03:26.242Z,2.30
2023-03-04T12:06:36.334Z,2.37
2023-03-04T12:09:46.534Z,3.43
2023-03-04T12:13:08.217Z,2.83
2023-03-04T12:16:22.204Z,3.20
2023-03-04T12:19:38.305Z,2.70
2023-03-04T12:22:45.837Z,2.30
2023-03-04T12:25:56.409Z,2.37
2023-03-04T12:29:05.856Z,2.37
2023-03-04T12:32:16.052Z,2.57
2023-03-04T12:35:31.195Z,3.13
2023-03-04T12:38:55.094Z,2.73
2023-03-04T12:42:08.067Z,2.63
2023-03-04T12:45:21.474Z,2.33
2023-03-04T12:48:33.136Z,2.90
2023-03-04T12:51:45.330Z,2.30
2023-03-04T12:54:51.622Z,1.97
2023-03-04T12:57:58.144Z,2.27
2023-03-04T13:01:08.609Z,1.87
2023-03-04T13:04:18.506Z,2.73
2023-03-04T13:07:29.481Z,3.10
2023-03-04T13:10:32.593Z,2.20
2023-03-04T13:13:38.921Z,2.30
2023-03-04T13:16:46.146Z,2.20
2023-03-04T13:19:52.736Z,3.23
2023-03-04T13:22:59.352Z,2.30
2023-03-04T13:26:25.550Z,3.00
2023-03-04T13:29:36.991Z,2.47
2023-03-04T13:32:44.002Z,2.07
2023-03-04T13:35:52.961Z,2.20
2023-03-04T13:39:01.421Z,2.23
2023-03-04T13:42:26.126Z,2.10
2023-03-04T13:45:35.591Z,2.33
2023-03-04T13:48:39.963Z,2.77
2023-03-04T13:51:46.095Z,2.27
2023-03-04T13:54:49.033Z,2.40
2023-03-04T13:57:52.994Z,1.93
2023-03-04T14:00:57.209Z,2.30
2023-03-04T14:04:02.513Z,1.87
2023-03-04T14:07:20.066Z,1.77
2023-03-04T14:10:25.637Z,2.10
2023-03-04T14:13:28.927Z,1.90
2023-03-04T14:16:36.314Z,1.97
2023-03-04T14:19:46.623Z,2.47
2023-03-04T14:22:49.663Z,2.23
2023-03-04T14:25:52.808Z,2.13
2023-03-04T14:28:57.432Z,2.00
2023-03-04T14:32:02.741Z,1.90
2023-03-04T14:35:19.151Z,2.10
2023-03-04T14:38:25.671Z,1.83
2023-03-04T14:41:32.663Z,1.67
2023-03-04T14:44:38.729Z,1.93
2023-03-04T14:47:45.372Z,3.27
2023-03-04T14:50:53.644Z,1.83
2023-03-04T14:53:57.677Z,2.10
2023-03-04T14:57:03.054Z,2.13
2023-03-04T15:00:17.229Z,2.10
2023-03-04T15:03:23.479Z,3.50
2023-03-04T15:06:30.756Z,2.33
2023-03-04T15:09:34.011Z,2.30
2023-03-04T15:12:38.428Z,1.57
2023-03-04T15:15:44.832Z,2.10
2023-03-04T15:19:00.678Z,1.70
2023-03-04T15:22:09.449Z,1.70
2023-03-04T15:25:15.219Z,2.20
2023-03-04T15:28:20.210Z,1.60
2023-03-04T15:31:25.723Z,2.00
2023-03-04T15:34:28.850Z,1.53
2023-03-04T15:37:33.271Z,2.07
2023-03-04T15:40:39.975Z,1.97
2023-03-04T15:43:42.922Z,1.93
2023-03-04T15:46:46.194Z,1.40
2023-03-04T15:49:49.253Z,1.97
2023-03-04T15:52:54.899Z,1.97
2023-03-04T15:55:58.103Z,1.50
2023-03-04T15:59:05.618Z,1.40
2023-03-04T16:02:16.338Z,2.03
2023-03-04T16:05:21.385Z,2.33
2023-03-04T16:08:26.285Z,1.80
2023-03-04T16:11:33.594Z,1.77
2023-03-04T16:14:36.929Z,1.97
2023-03-04T16:17:43.803Z,2.07
2023-03-04T16:20:48.467Z,2.60
2023-03-04T16:23:54.432Z,1.70
2023-03-04T16:26:57.461Z,1.90
2023-03-04T16:30:00.542Z,1.93
2023-03-04T16:33:03.604Z,1.57
2023-03-04T16:36:15.358Z,2.23
2023-03-04T16:39:22.491Z,1.70
2023-03-04T16:42:27.080Z,1.50
2023-03-04T16:45:30.874Z,1.37
2023-03-04T16:48:34.457Z,1.40
2023-03-04T16:51:43.485Z,2.00
2023-03-04T16:54:48.318Z,1.27
2023-03-04T16:57:52.197Z,1.33
2023-03-04T17:00:56.144Z,1.60
2023-03-04T17:03:59.191Z,1.93
2023-03-04T17:07:02.264Z,2.23
2023-03-04T17:10:07.513Z,1.50
2023-03-04T17:13:10.530Z,1.80
2023-03-04T17:16:15.175Z,1.33
2023-03-04T17:19:18.223Z,2.00
2023-03-04T17:22:21.260Z,1.30
2023-03-04T17:25:25.802Z,1.40
2023-03-04T17:28:29.081Z,1.83
2023-03-04T17:31:32.125Z,1.40
2023-03-04T17:34:35.164Z,3.87
2023-03-04T17:37:38.860Z,1.63
2023-03-04T17:40:43.617Z,1.60
2023-03-04T17:43:48.009Z,1.60
2023-03-04T17:46:51.121Z,1.73
2023-03-04T17:49:54.218Z,1.60
2023-03-04T17:52:57.222Z,1.40
2023-03-04T17:56:03.981Z,1.70
2023-03-04T17:59:09.218Z,1.90
2023-03-04T18:02:16.395Z,1.60
2023-03-04T18:05:19.577Z,1.73
2023-03-04T18:08:24.065Z,0.90
2023-03-04T18:11:29.242Z,2.00
2023-03-04T18:14:32.356Z,2.47
2023-03-04T18:17:35.453Z,2.00
2023-03-04T18:20:38.552Z,1.40
2023-03-04T18:23:41.598Z,2.20
2023-03-04T18:26:45.953Z,1.27
2023-03-04T18:29:48.988Z,1.90
2023-03-04T18:32:52.677Z,1.73
2023-03-04T18:35:59.955Z,2.10
2023-03-04T18:39:05.347Z,1.80
2023-03-04T18:42:09.705Z,2.03
2023-03-04T18:45:13.394Z,1.67
2023-03-04T18:48:16.549Z,1.37
2023-03-04T18:51:20.263Z,1.53
2023-03-04T18:54:23.416Z,1.60
2023-03-04T18:57:27.992Z,1.33
2023-03-04T19:00:31.133Z,1.50
2023-03-04T19:03:37.020Z,1.17
2023-03-04T19:06:40.282Z,1.37
2023-03-04T19:09:43.418Z,1.80
2023-03-04T19:12:47.796Z,1.53
2023-03-04T19:15:51.220Z,1.73
2023-03-04T19:18:54.563Z,1.63
2023-03-04T19:21:58.415Z,1.67
2023-03-04T19:25:01.629Z,1.20
2023-03-04T19:28:06.484Z,1.97
2023-03-04T19:31:11.149Z,1.37
2023-03-04T19:34:14.248Z,1.80
2023-03-04T19:37:17.351Z,1.53
2023-03-04T19:40:21.016Z,1.40
2023-03-04T19:43:25.352Z,1.60
2023-03-04T19:46:28.670Z,1.73
2023-03-04T19:49:32.696Z,1.47
2023-03-04T19:52:35.926Z,2.03
2023-03-04T19:55:38.953Z,1.70
2023-03-04T19:58:43.269Z,1.60
2023-03-04T20:01:47.295Z,1.60
2023-03-04T20:04:50.367Z,1.23
2023-03-04T20:07:53.599Z,1.63
2023-03-04T20:10:56.572Z,2.03
2023-03-04T20:14:02.188Z,2.13
2023-03-04T20:17:07.045Z,1.73
2023-03-04T20:20:12.400Z,1.73
2023-03-04T20:23:20.115Z,1.53
2023-03-04T20:26:23.621Z,1.30
2023-03-04T20:29:28.817Z,1.67
2023-03-04T20:32:31.808Z,1.90
2023-03-04T20:35:34.786Z,1.83
2023-03-04T20:38:37.840Z,1.73
2023-03-04T20:41:41.004Z,1.77
2023-03-04T20:44:45.351Z,1.30
2023-03-04T20:47:48.667Z,2.10
2023-03-04T20:50:51.624Z,2.10
2023-03-04T20:53:55.391Z,2.20
2023-03-04T20:56:58.444Z,1.47
2023-03-04T21:00:02.802Z,1.43
2023-03-04T21:03:05.935Z,1.50
2023-03-04T21:06:11.136Z,1.20
2023-03-04T21:09:17.550Z,1.30
2023-03-04T21:12:20.593Z,1.33
2023-03-04T21:15:24.942Z,1.30
2023-03-04T21:18:29.569Z,1.50
2023-03-04T21:21:32.675Z,1.30
2023-03-04T21:24:39.222Z,1.13
2023-03-04T21:27:43.143Z,1.77
2023-03-04T21:30:47.484Z,1.70
2023-03-04T21:33:50.877Z,1.43
2023-03-04T21:36:53.793Z,1.50
2023-03-04T21:39:58.085Z,1.53
2023-03-04T21:43:01.076Z,1.33
2023-03-04T21:46:06.139Z,1.47
2023-03-04T21:49:09.481Z,1.63
2023-03-04T21:52:13.045Z,1.23
2023-03-04T21:55:16.161Z,1.17
2023-03-04T21:58:19.209Z,1.70
2023-03-04T22:01:23.480Z,1.37
2023-03-04T22:04:26.449Z,1.43
2023-03-04T22:07:29.430Z,1.33
2023-03-04T22:10:32.409Z,1.20
2023-03-04T22:13:35.417Z,1.40
2023-03-04T22:16:53.952Z,0.93
2023-03-04T22:19:58.217Z,1.73
2023-03-04T22:23:01.186Z,1.97
2023-03-04T22:26:05.342Z,1.20
2023-03-04T22:29:08.280Z,1.30
2023-03-04T22:32:12.581Z,1.13
2023-03-04T22:35:15.680Z,1.23
2023-03-04T22:38:18.733Z,1.00
2023-03-04T22:41:22.558Z,1.30
2023-03-04T22:44:25.537Z,1.63
2023-03-04T22:47:29.793Z,0.87
2023-03-04T22:50:32.827Z,1.40
2023-03-04T22:53:35.904Z,1.33
2023-03-04T22:56:39.117Z,1.13
2023-03-04T22:59:42.249Z,1.40
2023-03-04T23:02:46.728Z,1.37
2023-03-04T23:05:49.736Z,1.27
2023-03-04T23:08:53.643Z,1.27
2023-03-04T23:11:56.606Z,1.53
2023-03-04T23:14:59.694Z,1.60
2023-03-04T23:18:04.038Z,1.23
2023-03-04T23:21:07.872Z,1.27
2023-03-04T23:24:12.603Z,1.17
2023-03-04T23:27:15.533Z,1.30
2023-03-04T23:30:18.516Z,1.43
2023-03-04T23:33:23.057Z,1.13
2023-03-04T23:36:28.272Z,1.40
2023-03-04T23:39:31.228Z,1.40
2023-03-04T23:42:34.168Z,1.30
2023-03-04T23:45:38.496Z,1.10
2023-03-04T23:48:46.210Z,1.33
2023-03-04T23:51:49.230Z,1.40
2023-03-04T23:54:52.227Z,1.47
2023-03-04T23:57:55.190Z,0.87
